createdAt,value
2022-08-27T00:00:55.058Z,0
2022-08-27T00:01:55.133Z,0
2022-08-27T00:02:55.067Z,0
2022-08-27T00:03:55.127Z,0
2022-08-27T00:04:55.069Z,0
2022-08-27T00:05:55.041Z,0
2022-08-27T00:06:55.155Z,0
2022-08-27T00:07:55.298Z,0
2022-08-27T00:08:55.624Z,0
2022-08-27T00:09:55.876Z,0
2022-08-27T00:10:56.545Z,0
2022-08-27T00:11:55.702Z,0
2022-08-27T00:12:55.057Z,0
2022-08-27T00:13:55.055Z,0
2022-08-27T00:14:55.165Z,0
2022-08-27T00:15:55.055Z,0
2022-08-27T00:16:55.157Z,0
2022-08-27T00:17:55.059Z,0
2022-08-27T00:18:55.076Z,0
2022-08-27T00:19:55.066Z,0
2022-08-27T00:20:55.072Z,0
2022-08-27T00:21:55.117Z,0
2022-08-27T00:22:55.065Z,0
2022-08-27T00:23:55.050Z,0
2022-08-27T00:24:55.071Z,0
2022-08-27T00:25:55.053Z,0
2022-08-27T00:26:55.100Z,0
2022-08-27T00:27:55.051Z,0
2022-08-27T00:28:55.062Z,0
2022-08-27T00:29:55.054Z,0
2022-08-27T00:30:55.130Z,0
2022-08-27T00:31:55.134Z,0
2022-08-27T00:32:55.137Z,0
2022-08-27T00:33:55.176Z,0
2022-08-27T00:34:55.052Z,0
2022-08-27T00:35:55.052Z,0
2022-08-27T00:36:55.102Z,0
2022-08-27T00:37:55.039Z,0
2022-08-27T00:38:55.195Z,0
2022-08-27T00:39:55.140Z,0
2022-08-27T00:40:55.405Z,0
2022-08-27T00:41:55.584Z,0
2022-08-27T00:42:55.367Z,0
2022-08-27T00:43:56.291Z,0
2022-08-27T00:44:56.089Z,0
2022-08-27T00:45:55.178Z,0
2022-08-27T00:46:55.061Z,0
2022-08-27T00:47:55.164Z,0
2022-08-27T00:48:55.039Z,0
2022-08-27T00:49:55.285Z,0
2022-08-27T00:50:55.473Z,0
2022-08-27T00:51:55.188Z,0
2022-08-27T00:52:55.456Z,0
2022-08-27T00:53:55.253Z,0
2022-08-27T00:54:55.535Z,0
2022-08-27T00:55:56.263Z,0
2022-08-27T00:56:55.395Z,0
2022-08-27T00:57:55.072Z,0
2022-08-27T00:58:55.157Z,0
2022-08-27T00:59:55.059Z,0
2022-08-27T01:00:55.381Z,0
2022-08-27T01:01:55.101Z,0
2022-08-27T01:02:55.329Z,0
2022-08-27T01:03:55.062Z,0
2022-08-27T01:04:55.063Z,0
2022-08-27T01:05:55.096Z,0
2022-08-27T01:06:55.049Z,0
2022-08-27T01:07:55.157Z,0
2022-08-27T01:08:55.062Z,0
2022-08-27T01:09:55.190Z,0
2022-08-27T01:10:55.055Z,0
2022-08-27T01:11:55.328Z,0
2022-08-27T01:12:55.064Z,0
2022-08-27T01:13:59.417Z,0
2022-08-27T01:14:55.071Z,0
2022-08-27T01:15:55.105Z,0
2022-08-27T01:16:55.113Z,0
2022-08-27T01:17:55.052Z,0
2022-08-27T01:18:55.089Z,0
2022-08-27T01:19:55.055Z,0
2022-08-27T01:20:55.062Z,0
2022-08-27T01:21:55.064Z,0
2022-08-27T01:22:55.069Z,0
2022-08-27T01:23:55.055Z,0
2022-08-27T01:24:55.066Z,0
2022-08-27T01:25:55.065Z,0
2022-08-27T01:26:55.077Z,0
2022-08-27T01:27:55.063Z,0
2022-08-27T01:28:55.181Z,0
2022-08-27T01:29:55.046Z,0
2022-08-27T01:30:55.062Z,0
2022-08-27T01:31:55.113Z,0
2022-08-27T01:32:55.061Z,0
2022-08-27T01:33:55.064Z,0
2022-08-27T01:34:55.063Z,0
2022-08-27T01:35:55.052Z,0
2022-08-27T01:36:57.375Z,0
2022-08-27T01:37:57.065Z,0
2022-08-27T01:38:55.107Z,0
2022-08-27T01:39:55.131Z,0
2022-08-27T01:40:55.068Z,0
2022-08-27T01:41:55.064Z,0
2022-08-27T01:42:55.068Z,0
2022-08-27T01:43:55.054Z,0
2022-08-27T01:44:55.072Z,0
2022-08-27T01:45:55.058Z,0
2022-08-27T01:46:55.087Z,0
2022-08-27T01:47:55.060Z,0
2022-08-27T01:48:55.100Z,0
2022-08-27T01:49:55.070Z,0
2022-08-27T01:50:55.322Z,0
2022-08-27T01:51:55.053Z,0
2022-08-27T01:52:55.071Z,0
2022-08-27T01:53:55.065Z,0
2022-08-27T01:54:55.072Z,0
2022-08-27T01:55:55.064Z,0
2022-08-27T01:56:55.064Z,0
2022-08-27T01:57:55.067Z,0
2022-08-27T01:58:55.110Z,0
2022-08-27T01:59:55.068Z,0
2022-08-27T02:00:56.702Z,0
2022-08-27T02:01:55.107Z,0
2022-08-27T02:02:55.080Z,0
2022-08-27T02:03:55.060Z,0
2022-08-27T02:04:55.076Z,0
2022-08-27T02:05:55.058Z,0
2022-08-27T02:06:55.074Z,0
2022-08-27T02:07:55.063Z,0
2022-08-27T02:08:55.091Z,0
2022-08-27T02:09:55.058Z,0
2022-08-27T02:10:55.057Z,0
2022-08-27T02:11:55.083Z,0
2022-08-27T02:12:55.067Z,0
2022-08-27T02:13:55.060Z,0
2022-08-27T02:14:55.072Z,0
2022-08-27T02:15:55.099Z,0
2022-08-27T02:16:55.091Z,0
2022-08-27T02:17:55.065Z,0
2022-08-27T02:18:55.054Z,0
2022-08-27T02:19:55.061Z,0
2022-08-27T02:20:55.069Z,0
2022-08-27T02:21:55.089Z,0
2022-08-27T02:22:55.145Z,0
2022-08-27T02:23:55.082Z,0
2022-08-27T02:24:55.040Z,0
2022-08-27T02:25:55.057Z,0
2022-08-27T02:26:55.105Z,0
2022-08-27T02:27:55.049Z,0
2022-08-27T02:28:55.146Z,0
2022-08-27T02:29:55.049Z,0
2022-08-27T02:30:55.164Z,0
2022-08-27T02:31:55.444Z,0
2022-08-27T02:32:55.361Z,0
2022-08-27T02:33:55.064Z,0
2022-08-27T02:34:55.088Z,0
2022-08-27T02:35:55.062Z,0
2022-08-27T02:36:55.064Z,0
2022-08-27T02:37:55.079Z,0
2022-08-27T02:38:55.079Z,0
2022-08-27T02:39:55.091Z,0
2022-08-27T02:40:55.064Z,0
2022-08-27T02:41:55.060Z,0
2022-08-27T02:42:55.081Z,0
2022-08-27T02:43:55.101Z,0
2022-08-27T02:44:55.171Z,0
2022-08-27T02:45:55.064Z,0
2022-08-27T02:46:55.147Z,0
2022-08-27T02:47:55.066Z,0
2022-08-27T02:48:55.072Z,0
2022-08-27T02:49:55.049Z,0
2022-08-27T02:50:55.065Z,0
2022-08-27T02:51:55.076Z,0
2022-08-27T02:52:55.064Z,0
2022-08-27T02:53:55.063Z,0
2022-08-27T02:54:55.075Z,0
2022-08-27T02:55:55.069Z,0
2022-08-27T02:56:55.065Z,0
2022-08-27T02:57:55.069Z,0
2022-08-27T02:58:55.048Z,0
2022-08-27T02:59:55.055Z,0
2022-08-27T03:00:55.056Z,0
2022-08-27T03:01:55.153Z,0
2022-08-27T03:02:55.090Z,0
2022-08-27T03:03:55.075Z,0
2022-08-27T03:04:55.039Z,0
2022-08-27T03:05:55.059Z,0
2022-08-27T03:06:55.070Z,0
2022-08-27T03:07:55.059Z,0
2022-08-27T03:08:55.064Z,0
2022-08-27T03:09:55.049Z,0
2022-08-27T03:10:55.045Z,0
2022-08-27T03:11:55.066Z,0
2022-08-27T03:12:55.047Z,0
2022-08-27T03:13:55.063Z,0
2022-08-27T03:14:55.062Z,0
2022-08-27T03:15:55.073Z,0
2022-08-27T03:16:55.046Z,0
2022-08-27T03:17:55.040Z,0
2022-08-27T03:18:55.029Z,0
2022-08-27T03:19:55.246Z,0
2022-08-27T03:20:55.039Z,0
2022-08-27T03:21:55.341Z,0
2022-08-27T03:22:55.294Z,0
2022-08-27T03:23:55.518Z,0
2022-08-27T03:24:55.742Z,0
2022-08-27T03:25:55.060Z,0
2022-08-27T03:26:55.067Z,0
2022-08-27T03:27:55.056Z,0
2022-08-27T03:28:55.194Z,0
2022-08-27T03:29:55.065Z,0
2022-08-27T03:30:55.170Z,0
2022-08-27T03:31:55.089Z,0
2022-08-27T03:32:55.059Z,0
2022-08-27T03:33:55.059Z,0
2022-08-27T03:34:55.066Z,0
2022-08-27T03:35:55.047Z,0
2022-08-27T03:36:55.105Z,0
2022-08-27T03:37:55.057Z,0
2022-08-27T03:38:55.060Z,0
2022-08-27T03:39:55.126Z,0
2022-08-27T03:40:55.040Z,0
2022-08-27T03:41:55.746Z,0
2022-08-27T03:42:55.111Z,0
2022-08-27T03:43:55.051Z,0
2022-08-27T03:44:55.180Z,0
2022-08-27T03:46:01.202Z,0
2022-08-27T03:46:55.161Z,0
2022-08-27T03:47:55.038Z,0
2022-08-27T03:48:57.357Z,0
2022-08-27T03:49:55.101Z,0
2022-08-27T03:50:55.520Z,0
2022-08-27T03:51:55.835Z,0
2022-08-27T03:52:55.394Z,0
2022-08-27T03:53:55.656Z,0
2022-08-27T03:54:55.061Z,0
2022-08-27T03:55:55.038Z,0
2022-08-27T03:56:55.040Z,0
2022-08-27T03:57:55.170Z,0
2022-08-27T03:58:55.038Z,0.23
2022-08-27T03:59:55.061Z,0.23
2022-08-27T04:00:55.084Z,0.23
2022-08-27T04:01:55.712Z,0.23
2022-08-27T04:02:55.519Z,0.46
2022-08-27T04:03:55.064Z,0.46
2022-08-27T04:04:55.340Z,0.69
2022-08-27T04:05:55.040Z,0.69
2022-08-27T04:06:55.189Z,0.69
2022-08-27T04:07:55.151Z,0.92
2022-08-27T04:08:55.391Z,1.15
2022-08-27T04:09:55.105Z,1.15
2022-08-27T04:10:55.036Z,1.61
2022-08-27T04:11:55.321Z,1.84
2022-08-27T04:12:55.823Z,2.07
2022-08-27T04:13:55.280Z,2.53
2022-08-27T04:14:55.055Z,2.76
2022-08-27T04:15:55.093Z,3.22
2022-08-27T04:16:55.213Z,3.91
2022-08-27T04:17:55.358Z,4.6
2022-08-27T04:18:55.054Z,5.29
2022-08-27T04:19:55.056Z,6.21
2022-08-27T04:20:55.061Z,7.13
2022-08-27T04:21:55.097Z,8.28
2022-08-27T04:22:55.114Z,9.2
2022-08-27T04:23:55.035Z,2.76
2022-08-27T04:24:55.184Z,11.67
2022-08-27T04:25:55.067Z,13.33
2022-08-27T04:26:55.090Z,14.17
2022-08-27T04:27:55.349Z,16.67
2022-08-27T04:28:55.055Z,18.33
2022-08-27T04:29:55.055Z,20.83
2022-08-27T04:30:55.219Z,21.67
2022-08-27T04:31:55.061Z,24.17
2022-08-27T04:32:55.069Z,27.5
2022-08-27T04:33:55.183Z,29.17
2022-08-27T04:34:55.063Z,30.83
2022-08-27T04:35:55.059Z,31.67
2022-08-27T04:36:55.062Z,34.17
2022-08-27T04:37:55.053Z,35.83
2022-08-27T04:38:55.054Z,37.5
2022-08-27T04:39:55.106Z,36.67
2022-08-27T04:40:55.070Z,34.17
2022-08-27T04:41:55.067Z,35.83
2022-08-27T04:42:55.082Z,39.17
2022-08-27T04:43:55.102Z,40
2022-08-27T04:44:55.082Z,38.33
2022-08-27T04:45:55.058Z,36.67
2022-08-27T04:46:55.096Z,39.17
2022-08-27T04:47:55.049Z,44.17
2022-08-27T04:48:55.073Z,38.33
2022-08-27T04:49:55.050Z,43.33
2022-08-27T04:50:55.073Z,45
2022-08-27T04:51:55.069Z,50.83
2022-08-27T04:52:55.063Z,56.67
2022-08-27T04:53:55.057Z,58.33
2022-08-27T04:54:55.080Z,60
2022-08-27T04:55:55.049Z,65
2022-08-27T04:56:55.052Z,70.83
2022-08-27T04:57:55.070Z,73.33
2022-08-27T04:58:55.054Z,83.33
2022-08-27T04:59:55.068Z,90
2022-08-27T05:00:55.056Z,100.83
2022-08-27T05:01:55.111Z,100.83
2022-08-27T05:02:55.064Z,120.83
2022-08-27T05:03:55.054Z,129.17
2022-08-27T05:04:55.096Z,129.17
2022-08-27T05:05:55.069Z,135
2022-08-27T05:06:55.086Z,138.33
2022-08-27T05:07:55.068Z,136.67
2022-08-27T05:08:55.067Z,147.5
2022-08-27T05:09:55.064Z,160
2022-08-27T05:10:55.088Z,160
2022-08-27T05:11:55.062Z,178.33
2022-08-27T05:12:59.371Z,180.83
2022-08-27T05:13:55.060Z,213.33
2022-08-27T05:14:55.063Z,213.33
2022-08-27T05:15:55.086Z,248.33
2022-08-27T05:16:55.093Z,292.5
2022-08-27T05:17:55.081Z,300.83
2022-08-27T05:18:55.079Z,328.33
2022-08-27T05:19:55.056Z,335.83
2022-08-27T05:20:55.062Z,398.33
2022-08-27T05:21:55.062Z,458.33
2022-08-27T05:22:55.056Z,497.5
2022-08-27T05:23:55.050Z,530.83
2022-08-27T05:24:55.056Z,588.33
2022-08-27T05:25:55.075Z,640
2022-08-27T05:26:55.064Z,630
2022-08-27T05:27:55.066Z,824.17
2022-08-27T05:28:55.065Z,865.83
2022-08-27T05:29:55.080Z,775.83
2022-08-27T05:30:55.384Z,826.67
2022-08-27T05:31:55.060Z,793.33
2022-08-27T05:32:55.054Z,782.5
2022-08-27T05:33:55.059Z,902.5
2022-08-27T05:34:55.065Z,1003.33
2022-08-27T05:35:55.059Z,1004.17
2022-08-27T05:36:55.055Z,1082.5
2022-08-27T05:37:55.042Z,1076.67
2022-08-27T05:38:55.147Z,1191.67
2022-08-27T05:39:55.092Z,1191.67
2022-08-27T05:40:55.317Z,1155
2022-08-27T05:41:55.102Z,1238.33
2022-08-27T05:42:55.390Z,1238.33
2022-08-27T05:43:55.069Z,1331.67
2022-08-27T05:44:55.050Z,1340.83
2022-08-27T05:45:55.367Z,1373.33
2022-08-27T05:46:55.063Z,1370
2022-08-27T05:47:55.055Z,1290
2022-08-27T05:48:55.041Z,1182.5
2022-08-27T05:49:55.066Z,1219.17
2022-08-27T05:50:55.067Z,1188.33
2022-08-27T05:51:55.056Z,1120
2022-08-27T05:52:55.055Z,1040
2022-08-27T05:53:55.062Z,1087.5
2022-08-27T05:54:55.057Z,1014.17
2022-08-27T05:55:55.063Z,1004.17
2022-08-27T05:56:55.060Z,984.17
2022-08-27T05:57:55.069Z,965
2022-08-27T05:58:55.059Z,957.5
2022-08-27T05:59:55.055Z,944.17
2022-08-27T06:00:56.809Z,978.33
2022-08-27T06:01:55.069Z,999.17
2022-08-27T06:02:55.128Z,1024.17
2022-08-27T06:03:55.079Z,1026.67
2022-08-27T06:04:55.072Z,1017.5
2022-08-27T06:05:55.059Z,1062.5
2022-08-27T06:06:55.070Z,1047.5
2022-08-27T06:07:55.064Z,1054.17
2022-08-27T06:08:55.072Z,1133.33
2022-08-27T06:09:55.056Z,1183.33
2022-08-27T06:10:55.064Z,1208.33
2022-08-27T06:11:55.066Z,1135
2022-08-27T06:12:57.075Z,1265.83
2022-08-27T06:13:55.149Z,1275.83
2022-08-27T06:14:55.053Z,1235
2022-08-27T06:15:55.080Z,1318.33
2022-08-27T06:16:55.057Z,1365.83
2022-08-27T06:17:55.051Z,1548.33
2022-08-27T06:18:55.048Z,1667.5
2022-08-27T06:19:55.054Z,1774.17
2022-08-27T06:20:55.056Z,1897.5
2022-08-27T06:22:00.623Z,2020.83
2022-08-27T06:22:55.090Z,2166.67
2022-08-27T06:23:55.060Z,2253.33
2022-08-27T06:24:55.074Z,2280
2022-08-27T06:25:55.058Z,2520.83
2022-08-27T06:26:55.059Z,2665.83
2022-08-27T06:27:55.163Z,2783.33
2022-08-27T06:28:55.059Z,2981.67
2022-08-27T06:29:55.055Z,3015
2022-08-27T06:30:55.069Z,2997.5
2022-08-27T06:31:55.063Z,3188.33
2022-08-27T06:32:55.036Z,3282.5
2022-08-27T06:33:55.066Z,3578.33
2022-08-27T06:34:55.296Z,3667.5
2022-08-27T06:35:55.783Z,3901.67
2022-08-27T06:36:56.123Z,4277.5
2022-08-27T06:37:56.069Z,4444.17
2022-08-27T06:38:56.422Z,4434.17
2022-08-27T06:39:55.768Z,4374.17
2022-08-27T06:40:55.078Z,4124.17
2022-08-27T06:41:55.078Z,4100
2022-08-27T06:42:55.096Z,3837.5
2022-08-27T06:43:55.068Z,3419.17
2022-08-27T06:44:55.069Z,3387.5
2022-08-27T06:45:55.141Z,3135.83
2022-08-27T06:46:55.081Z,3259.17
2022-08-27T06:47:55.073Z,3655.83
2022-08-27T06:48:55.062Z,3975
2022-08-27T06:49:55.035Z,4253.33
2022-08-27T06:50:55.137Z,4659.17
2022-08-27T06:51:55.064Z,4649.17
2022-08-27T06:52:55.179Z,4769.17
2022-08-27T06:53:55.030Z,4615
2022-08-27T06:54:55.188Z,4370
2022-08-27T06:55:55.070Z,3956.67
2022-08-27T06:56:55.040Z,3600.83
2022-08-27T06:57:55.298Z,3710
2022-08-27T06:58:55.668Z,3901.67
2022-08-27T06:59:55.260Z,4074.17
2022-08-27T07:00:55.087Z,4021.67
2022-08-27T07:01:55.407Z,4026.67
2022-08-27T07:02:55.173Z,4064.17
2022-08-27T07:03:55.066Z,4194.17
2022-08-27T07:04:55.055Z,4399.17
2022-08-27T07:05:55.059Z,5221.67
2022-08-27T07:06:55.057Z,5805
2022-08-27T07:07:55.105Z,6098.33
2022-08-27T07:08:55.074Z,6453.33
2022-08-27T07:09:55.047Z,6740
2022-08-27T07:10:55.149Z,6905
2022-08-27T07:11:55.034Z,6955.83
2022-08-27T07:12:55.186Z,6962.5
2022-08-27T07:13:55.062Z,7005
2022-08-27T07:14:55.068Z,7078.33
2022-08-27T07:15:55.182Z,7090
2022-08-27T07:16:55.304Z,7079.17
2022-08-27T07:17:55.581Z,7041.67
2022-08-27T07:18:55.340Z,6946.67
2022-08-27T07:19:55.452Z,6815
2022-08-27T07:20:55.162Z,6726.67
2022-08-27T07:21:55.129Z,6709.17
2022-08-27T07:22:55.498Z,6692.5
2022-08-27T07:23:55.054Z,6690
2022-08-27T07:24:55.225Z,6567.5
2022-08-27T07:25:55.433Z,6387.5
2022-08-27T07:26:55.376Z,6288.33
2022-08-27T07:27:55.082Z,6370.83
2022-08-27T07:28:55.128Z,6495.83
2022-08-27T07:29:55.062Z,6705.83
2022-08-27T07:30:55.398Z,6953.33
2022-08-27T07:31:55.076Z,7085.83
2022-08-27T07:32:55.097Z,6954.17
2022-08-27T07:33:55.057Z,6864.17
2022-08-27T07:34:55.063Z,6653.33
2022-08-27T07:35:55.076Z,6549.17
2022-08-27T07:36:55.042Z,6559.17
2022-08-27T07:37:55.184Z,6520
2022-08-27T07:38:55.566Z,6444.17
2022-08-27T07:39:55.204Z,6395.83
2022-08-27T07:40:55.057Z,6317.5
2022-08-27T07:41:55.157Z,6162.5
2022-08-27T07:42:55.407Z,5969.17
2022-08-27T07:43:56.134Z,5812.5
2022-08-27T07:44:55.059Z,5735
2022-08-27T07:45:55.086Z,5710.83
2022-08-27T07:46:55.065Z,5669.17
2022-08-27T07:47:55.084Z,5670.83
2022-08-27T07:48:55.077Z,5593.33
2022-08-27T07:49:55.060Z,5492.5
2022-08-27T07:50:55.064Z,5405
2022-08-27T07:51:55.086Z,5288.33
2022-08-27T07:52:55.102Z,5110
2022-08-27T07:53:55.070Z,5015
2022-08-27T07:54:55.078Z,5008.33
2022-08-27T07:55:55.072Z,5041.67
2022-08-27T07:56:55.984Z,4936.67
2022-08-27T07:57:55.051Z,4733.33
2022-08-27T07:58:55.066Z,4630.83
2022-08-27T07:59:55.067Z,4585.83
2022-08-27T08:00:55.046Z,4640.83
2022-08-27T08:01:55.235Z,4821.67
2022-08-27T08:02:55.147Z,5278.33
2022-08-27T08:03:55.065Z,5944.17
2022-08-27T08:04:55.093Z,6380.83
2022-08-27T08:05:55.165Z,6620.83
2022-08-27T08:06:55.052Z,6529.17
2022-08-27T08:07:55.053Z,6247.5
2022-08-27T08:08:55.079Z,5900.83
2022-08-27T08:09:55.081Z,5473.33
2022-08-27T08:10:55.052Z,5115.83
2022-08-27T08:11:55.075Z,4770
2022-08-27T08:12:55.058Z,4441.67
2022-08-27T08:13:55.057Z,4249.17
2022-08-27T08:14:55.062Z,4244.17
2022-08-27T08:15:55.177Z,4306.67
2022-08-27T08:16:55.111Z,4355
2022-08-27T08:17:55.058Z,4587.5
2022-08-27T08:18:55.081Z,5134.17
2022-08-27T08:20:15.628Z,5994.17
2022-08-27T08:20:58.278Z,6702.5
2022-08-27T08:21:59.542Z,7053.33
2022-08-27T08:22:55.057Z,7255.83
2022-08-27T08:23:55.065Z,7533.33
2022-08-27T08:24:55.065Z,7939.17
2022-08-27T08:25:55.177Z,8430.83
2022-08-27T08:26:55.054Z,9014.17
2022-08-27T08:27:55.065Z,9603.33
2022-08-27T08:28:55.059Z,10210
2022-08-27T08:29:55.062Z,10782.5
2022-08-27T08:30:55.066Z,11065
2022-08-27T08:31:55.051Z,10978.33
2022-08-27T08:32:55.073Z,10590
2022-08-27T08:33:55.077Z,10103.33
2022-08-27T08:34:55.072Z,9641.67
2022-08-27T08:35:55.072Z,9355
2022-08-27T08:36:55.339Z,9343.33
2022-08-27T08:37:55.059Z,9584.17
2022-08-27T08:38:55.094Z,10028.33
2022-08-27T08:39:55.114Z,10471.67
2022-08-27T08:40:55.050Z,10771.67
2022-08-27T08:41:55.061Z,11014.17
2022-08-27T08:42:55.070Z,11240.83
2022-08-27T08:43:55.112Z,11364.17
2022-08-27T08:44:55.075Z,11463.33
2022-08-27T08:45:55.123Z,11753.33
2022-08-27T08:46:55.060Z,12237.5
2022-08-27T08:47:55.173Z,12737.5
2022-08-27T08:48:55.074Z,12926.67
2022-08-27T08:49:55.058Z,12781.67
2022-08-27T08:50:55.073Z,12460.83
2022-08-27T08:51:55.180Z,11930
2022-08-27T08:52:55.059Z,11392.5
2022-08-27T08:53:55.097Z,10945.83
2022-08-27T08:54:55.049Z,10850
2022-08-27T08:55:55.160Z,10863.33
2022-08-27T08:56:55.452Z,10862.5
2022-08-27T08:57:55.050Z,10677.5
2022-08-27T08:58:55.084Z,10298.33
2022-08-27T08:59:55.207Z,9815.83
2022-08-27T09:00:55.350Z,10095.83
2022-08-27T09:01:55.062Z,10798.33
2022-08-27T09:02:55.075Z,11791.67
2022-08-27T09:03:55.125Z,12760
2022-08-27T09:04:55.083Z,13047.5
2022-08-27T09:05:55.061Z,12727.5
2022-08-27T09:06:55.072Z,12330.83
2022-08-27T09:08:05.140Z,11784.17
2022-08-27T09:08:55.215Z,10966.67
2022-08-27T09:09:55.075Z,10348.33
2022-08-27T09:10:55.075Z,10399.17
2022-08-27T09:11:55.062Z,10887.5
2022-08-27T09:12:55.087Z,11513.33
2022-08-27T09:13:55.089Z,12424.17
2022-08-27T09:14:55.075Z,13756.67
2022-08-27T09:15:55.055Z,15305
2022-08-27T09:16:56.523Z,16640
2022-08-27T09:17:55.069Z,17093.33
2022-08-27T09:18:55.083Z,17404.17
2022-08-27T09:19:55.067Z,17607.5
2022-08-27T09:20:55.075Z,17325
2022-08-27T09:21:55.032Z,16379.17
2022-08-27T09:22:55.056Z,15181.67
2022-08-27T09:23:55.065Z,14218.33
2022-08-27T09:24:55.068Z,13316.67
2022-08-27T09:25:55.058Z,12487.5
2022-08-27T09:26:55.062Z,11249.17
2022-08-27T09:27:55.054Z,10026.67
2022-08-27T09:28:55.057Z,9278.33
2022-08-27T09:29:55.058Z,8989.17
2022-08-27T09:30:55.089Z,9135
2022-08-27T09:31:55.216Z,9429.17
2022-08-27T09:32:55.056Z,9439.17
2022-08-27T09:33:56.910Z,9114.17
2022-08-27T09:34:55.053Z,8840.83
2022-08-27T09:35:55.061Z,8628.33
2022-08-27T09:36:55.060Z,8365.83
2022-08-27T09:37:55.056Z,8099.17
2022-08-27T09:38:55.698Z,8176.67
2022-08-27T09:39:55.110Z,8435
2022-08-27T09:40:55.059Z,8560
2022-08-27T09:41:55.067Z,8494.17
2022-08-27T09:42:55.068Z,8635
2022-08-27T09:43:55.178Z,8949.17
2022-08-27T09:44:55.067Z,9299.17
2022-08-27T09:45:55.111Z,9569.17
2022-08-27T09:46:55.071Z,9832.5
2022-08-27T09:47:55.090Z,10153.33
2022-08-27T09:48:55.165Z,10456.67
2022-08-27T09:49:55.462Z,10715.83
2022-08-27T09:50:55.885Z,10995.83
2022-08-27T09:51:56.207Z,11256.67
2022-08-27T09:52:55.601Z,11180
2022-08-27T09:53:55.061Z,10720
2022-08-27T09:54:55.075Z,9910
2022-08-27T09:55:55.074Z,9264.17
2022-08-27T09:56:55.084Z,8900
2022-08-27T09:57:55.029Z,8838.33
2022-08-27T09:58:55.091Z,8756.67
2022-08-27T09:59:55.071Z,8482.5
2022-08-27T10:00:55.231Z,8156.67
2022-08-27T10:01:55.109Z,7963.33
2022-08-27T10:02:55.049Z,8055.83
2022-08-27T10:03:55.126Z,8169.17
2022-08-27T10:04:55.327Z,8272.5
2022-08-27T10:05:55.619Z,8516.67
2022-08-27T10:06:56.017Z,8802.5
2022-08-27T10:07:55.034Z,9224.17
2022-08-27T10:08:55.325Z,9637.5
2022-08-27T10:09:55.054Z,9890.83
2022-08-27T10:10:55.054Z,9969.17
2022-08-27T10:11:55.099Z,10026.67
2022-08-27T10:12:55.075Z,9974.17
2022-08-27T10:13:55.099Z,9760
2022-08-27T10:14:55.064Z,9360.83
2022-08-27T10:15:55.055Z,9115
2022-08-27T10:16:55.121Z,8994.17
2022-08-27T10:17:55.055Z,9109.17
2022-08-27T10:18:55.082Z,9355
2022-08-27T10:19:55.059Z,9725
2022-08-27T10:20:55.066Z,10220.83
2022-08-27T10:21:55.064Z,10769.17
2022-08-27T10:22:55.062Z,11325
2022-08-27T10:23:55.094Z,11995
2022-08-27T10:24:55.065Z,12410.83
2022-08-27T10:25:55.148Z,12442.5
2022-08-27T10:26:55.039Z,12300.83
2022-08-27T10:27:55.477Z,12115
2022-08-27T10:28:55.451Z,12257.5
2022-08-27T10:29:55.110Z,12625.83
2022-08-27T10:30:55.212Z,13134.17
2022-08-27T10:31:55.570Z,13594.17
2022-08-27T10:32:55.360Z,14108.33
2022-08-27T10:33:55.067Z,14623.33
2022-08-27T10:34:55.131Z,15013.33
2022-08-27T10:35:55.368Z,15252.5
2022-08-27T10:36:55.119Z,15520
2022-08-27T10:37:55.247Z,15875.83
2022-08-27T10:38:55.707Z,15989.17
2022-08-27T10:39:55.056Z,16103.33
2022-08-27T10:40:55.273Z,16288.33
2022-08-27T10:41:55.572Z,15915
2022-08-27T10:42:56.268Z,14631.67
2022-08-27T10:43:55.075Z,12970
2022-08-27T10:44:55.218Z,11417.5
2022-08-27T10:45:55.146Z,10282.5
2022-08-27T10:46:55.072Z,9593.33
2022-08-27T10:47:55.082Z,9369.17
2022-08-27T10:48:55.072Z,9456.67
2022-08-27T10:49:55.115Z,9357.5
2022-08-27T10:50:55.049Z,8869.17
2022-08-27T10:51:55.044Z,8021.67
2022-08-27T10:52:55.197Z,7524.17
2022-08-27T10:53:55.060Z,7304.17
2022-08-27T10:54:55.130Z,7267.5
2022-08-27T10:55:55.056Z,7342.5
2022-08-27T10:57:08.571Z,7430.83
2022-08-27T10:57:58.845Z,7503.33
2022-08-27T10:58:55.182Z,7342.5
2022-08-27T10:59:55.064Z,6974.17
2022-08-27T11:00:55.114Z,6560
2022-08-27T11:01:55.130Z,6135
2022-08-27T11:02:55.081Z,5857.5
2022-08-27T11:03:55.052Z,5833.33
2022-08-27T11:04:55.059Z,6014.17
2022-08-27T11:05:55.057Z,6280.83
2022-08-27T11:06:55.065Z,6533.33
2022-08-27T11:07:55.107Z,6620.83
2022-08-27T11:08:55.083Z,6513.33
2022-08-27T11:09:57.096Z,6293.33
2022-08-27T11:10:55.087Z,6043.33
2022-08-27T11:12:13.635Z,5884.17
2022-08-27T11:12:55.077Z,5895.83
2022-08-27T11:13:56.935Z,6025.83
2022-08-27T11:14:55.061Z,6403.33
2022-08-27T11:15:55.064Z,6403.33
2022-08-27T11:16:55.162Z,7505
2022-08-27T11:17:55.069Z,8017.5
2022-08-27T11:18:55.073Z,8525.83
2022-08-27T11:19:55.062Z,9015
2022-08-27T11:20:55.074Z,9508.33
2022-08-27T11:21:55.176Z,9857.5
2022-08-27T11:22:55.061Z,10180.83
2022-08-27T11:23:55.061Z,10344.17
2022-08-27T11:24:55.068Z,10423.33
2022-08-27T11:25:55.063Z,10425
2022-08-27T11:26:55.053Z,10374.17
2022-08-27T11:27:55.050Z,10343.33
2022-08-27T11:28:55.055Z,10298.33
2022-08-27T11:29:56.920Z,10195.83
2022-08-27T11:30:55.077Z,9972.5
2022-08-27T11:31:55.117Z,9714.17
2022-08-27T11:32:55.059Z,9471.67
2022-08-27T11:33:55.055Z,9219.17
2022-08-27T11:34:55.066Z,9145
2022-08-27T11:35:55.053Z,9275
2022-08-27T11:36:55.057Z,9539.17
2022-08-27T11:37:55.057Z,9901.67
2022-08-27T11:38:55.058Z,10288.33
2022-08-27T11:39:55.102Z,10715.83
2022-08-27T11:40:55.191Z,11153.33
2022-08-27T11:41:55.089Z,11377.5
2022-08-27T11:42:55.068Z,11020
2022-08-27T11:43:55.062Z,10461.67
2022-08-27T11:44:55.045Z,9973.33
2022-08-27T11:45:55.058Z,9724.17
2022-08-27T11:46:55.135Z,9756.67
2022-08-27T11:47:55.046Z,10349.17
2022-08-27T11:48:55.072Z,11488.33
2022-08-27T11:49:55.072Z,12950
2022-08-27T11:50:55.057Z,14536.67
2022-08-27T11:51:55.068Z,15885
2022-08-27T11:52:55.079Z,16764.17
2022-08-27T11:53:55.300Z,17073.33
2022-08-27T11:54:55.056Z,16869.17
2022-08-27T11:55:55.061Z,16215.83
2022-08-27T11:56:55.080Z,15395
2022-08-27T11:57:55.063Z,14815.83
2022-08-27T11:58:55.072Z,14660
2022-08-27T11:59:55.059Z,14854.17
2022-08-27T12:00:55.065Z,15312.5
2022-08-27T12:01:55.048Z,15840
2022-08-27T12:02:55.081Z,16275
2022-08-27T12:03:55.222Z,16585
2022-08-27T12:04:55.074Z,16817.5
2022-08-27T12:05:55.033Z,16936.67
2022-08-27T12:06:55.204Z,17008.33
2022-08-27T12:07:55.054Z,16905
2022-08-27T12:08:55.048Z,16913.33
2022-08-27T12:09:55.322Z,17335
2022-08-27T12:10:55.154Z,17785
2022-08-27T12:11:56.644Z,18175
2022-08-27T12:12:55.061Z,18538.33
2022-08-27T12:13:55.091Z,19364.17
2022-08-27T12:14:55.140Z,20678.33
2022-08-27T12:15:55.418Z,21612.5
2022-08-27T12:16:55.054Z,21540
2022-08-27T12:17:55.050Z,21135
2022-08-27T12:18:55.082Z,20860.83
2022-08-27T12:19:55.063Z,21068.33
2022-08-27T12:20:55.061Z,21893.33
2022-08-27T12:21:55.065Z,21833.33
2022-08-27T12:22:55.059Z,20935.83
2022-08-27T12:23:55.096Z,19664.17
2022-08-27T12:24:55.614Z,18960.83
2022-08-27T12:25:55.082Z,18863.33
2022-08-27T12:26:55.087Z,18933.33
2022-08-27T12:27:55.080Z,19032.5
2022-08-27T12:28:55.088Z,19191.67
2022-08-27T12:29:55.060Z,19461.67
2022-08-27T12:30:55.072Z,19897.5
2022-08-27T12:31:55.107Z,20096.67
2022-08-27T12:32:55.059Z,19907.5
2022-08-27T12:33:55.067Z,19468.33
2022-08-27T12:34:59.101Z,18675
2022-08-27T12:35:55.069Z,18468.33
2022-08-27T12:36:55.221Z,18244.17
2022-08-27T12:37:56.825Z,17449.17
2022-08-27T12:38:55.064Z,16814.17
2022-08-27T12:39:55.141Z,16718.33
2022-08-27T12:40:55.054Z,16975.83
2022-08-27T12:41:55.182Z,17377.5
2022-08-27T12:42:55.061Z,17850.83
2022-08-27T12:43:55.074Z,18206.67
2022-08-27T12:44:55.055Z,18763.33
2022-08-27T12:45:55.053Z,19005
2022-08-27T12:46:55.133Z,18380
2022-08-27T12:47:55.059Z,17890.83
2022-08-27T12:48:55.210Z,17446.67
2022-08-27T12:49:55.861Z,17303.33
2022-08-27T12:50:55.053Z,17418.33
2022-08-27T12:51:55.074Z,17771.67
2022-08-27T12:52:55.055Z,18085.83
2022-08-27T12:53:55.055Z,17630
2022-08-27T12:54:55.061Z,17045
2022-08-27T12:55:55.070Z,16973.33
2022-08-27T12:56:55.056Z,16211.67
2022-08-27T12:57:55.085Z,15773.33
2022-08-27T12:58:55.073Z,14740.83
2022-08-27T12:59:55.071Z,13030
2022-08-27T13:00:55.104Z,11388.33